createdAt,value
2017-11-30T00:02:11.597Z,52.20
2017-11-30T00:04:40.938Z,59.50
2017-11-30T00:07:09.912Z,47.37
2017-11-30T00:09:39.314Z,57.87
2017-11-30T00:12:08.293Z,56.87
2017-11-30T00:14:37.340Z,49.67
2017-11-30T00:17:06.420Z,45.33
2017-11-30T00:19:36.182Z,49.47
2017-11-30T00:22:05.526Z,43.10
2017-11-30T00:24:35.007Z,59.10
2017-11-30T00:27:04.054Z,47.53
2017-11-30T00:29:33.491Z,50.73
2017-11-30T00:32:02.577Z,47.60
2017-11-30T00:34:32.356Z,39.70
2017-11-30T00:37:01.337Z,50.63
2017-11-30T00:39:30.802Z,37.57
2017-11-30T00:42:00.714Z,40.90
2017-11-30T00:44:33.222Z,39.93
2017-11-30T00:47:02.968Z,37.37
2017-11-30T00:49:32.732Z,46.33
2017-11-30T00:52:02.484Z,39.23
2017-11-30T00:54:32.233Z,40.37
2017-11-30T00:57:01.217Z,44.43
2017-11-30T00:59:30.656Z,44.53
2017-11-30T01:02:00.447Z,42.23
2017-11-30T01:04:29.844Z,50.10
2017-11-30T01:06:59.069Z,45.00
2017-11-30T01:09:28.865Z,42.93
2017-11-30T01:11:58.622Z,44.43
2017-11-30T01:14:27.992Z,37.43
2017-11-30T01:16:57.827Z,46.80
2017-11-30T01:19:26.787Z,40.23
2017-11-30T01:21:55.793Z,45.67
2017-11-30T01:24:25.543Z,37.87
2017-11-30T01:26:55.961Z,42.53
2017-11-30T01:29:25.731Z,38.53
2017-11-30T01:31:54.762Z,35.37
2017-11-30T01:34:23.786Z,36.60
2017-11-30T01:36:52.857Z,34.60
2017-11-30T01:39:22.138Z,43.63
2017-11-30T01:41:51.082Z,43.17
2017-11-30T01:44:20.827Z,46.57
2017-11-30T01:46:49.908Z,46.23
2017-11-30T01:49:18.861Z,47.73
2017-11-30T01:51:47.871Z,44.73
2017-11-30T01:54:17.375Z,46.10
2017-11-30T01:56:46.388Z,50.00
2017-11-30T01:59:15.492Z,40.80
2017-11-30T02:01:45.273Z,49.33
2017-11-30T02:04:15.050Z,44.73
2017-11-30T02:06:44.055Z,47.47
2017-11-30T02:09:13.064Z,47.03
2017-11-30T02:11:42.896Z,50.47
2017-11-30T02:14:12.735Z,46.80
2017-11-30T02:16:41.920Z,46.10
2017-11-30T02:19:11.801Z,39.17
2017-11-30T02:21:40.817Z,31.97
2017-11-30T02:24:10.640Z,36.10
2017-11-30T02:26:40.439Z,26.03
2017-11-30T02:29:09.437Z,29.40
2017-11-30T02:31:39.190Z,28.67
2017-11-30T02:34:08.659Z,32.80
2017-11-30T02:36:37.689Z,28.33
2017-11-30T02:39:08.093Z,36.00
2017-11-30T02:41:37.514Z,30.97
2017-11-30T02:44:06.519Z,34.13
2017-11-30T02:46:35.554Z,32.73
2017-11-30T02:49:05.303Z,27.27
2017-11-30T02:51:35.447Z,32.70
2017-11-30T02:54:04.685Z,31.50
2017-11-30T02:56:34.140Z,29.47
2017-11-30T02:59:03.889Z,29.47
2017-11-30T03:01:33.642Z,25.40
2017-11-30T03:04:03.491Z,31.00
2017-11-30T03:06:32.561Z,29.00
2017-11-30T03:09:01.539Z,23.57
2017-11-30T03:11:30.690Z,36.23
2017-11-30T03:14:00.431Z,30.83
2017-11-30T03:16:29.467Z,28.00
2017-11-30T03:18:58.462Z,22.40
2017-11-30T03:21:27.432Z,26.67
2017-11-30T03:23:56.913Z,28.67
2017-11-30T03:26:26.674Z,24.37
2017-11-30T03:28:55.777Z,27.33
2017-11-30T03:31:24.723Z,25.40
2017-11-30T03:33:53.699Z,28.43
2017-11-30T03:36:22.685Z,20.13
2017-11-30T03:38:51.734Z,27.27
2017-11-30T03:41:20.695Z,25.90
2017-11-30T03:43:50.466Z,27.13
2017-11-30T03:46:19.457Z,26.57
2017-11-30T03:48:48.449Z,26.80
2017-11-30T03:51:17.435Z,29.47
2017-11-30T03:53:46.456Z,25.50
2017-11-30T03:56:15.445Z,26.10
2017-11-30T03:58:44.426Z,22.97
2017-11-30T04:01:13.401Z,34.27
2017-11-30T04:03:42.467Z,30.73
2017-11-30T04:06:11.453Z,29.97
2017-11-30T04:08:40.586Z,28.27
2017-11-30T04:11:09.675Z,25.97
2017-11-30T04:13:39.126Z,29.77
2017-11-30T04:16:08.192Z,34.60
2017-11-30T04:18:37.945Z,25.20
2017-11-30T04:21:06.930Z,25.20
2017-11-30T04:23:36.021Z,34.20
2017-11-30T04:26:06.148Z,23.47
2017-11-30T04:28:35.189Z,27.70
2017-11-30T04:31:04.561Z,31.87
2017-11-30T04:33:33.542Z,32.33
2017-11-30T04:36:03.320Z,30.57
2017-11-30T04:38:33.202Z,33.73
2017-11-30T04:41:02.562Z,30.93
2017-11-30T04:43:31.617Z,29.53
2017-11-30T04:46:00.585Z,23.83
2017-11-30T04:48:29.597Z,27.50
2017-11-30T04:50:58.601Z,37.00
2017-11-30T04:53:28.370Z,30.50
2017-11-30T04:55:58.133Z,30.20
2017-11-30T04:58:27.136Z,26.73
2017-11-30T05:00:56.410Z,25.70
2017-11-30T05:03:26.129Z,25.57
2017-11-30T05:05:55.643Z,29.10
2017-11-30T05:08:24.611Z,34.47
2017-11-30T05:10:54.477Z,35.17
2017-11-30T05:13:23.509Z,29.43
2017-11-30T05:15:52.613Z,27.00
2017-11-30T05:18:22.398Z,33.77
2017-11-30T05:20:51.422Z,28.83
2017-11-30T05:23:20.946Z,30.20
2017-11-30T05:25:55.997Z,37.33
2017-11-30T05:28:25.021Z,28.93
2017-11-30T05:30:54.825Z,31.83
2017-11-30T05:33:23.924Z,34.33
2017-11-30T05:35:52.910Z,36.30
2017-11-30T05:38:22.727Z,34.90
2017-11-30T05:40:52.520Z,35.70
2017-11-30T05:43:21.946Z,31.77
2017-11-30T05:45:51.355Z,28.20
2017-11-30T05:48:20.791Z,25.70
2017-11-30T05:50:50.549Z,32.17
2017-11-30T05:53:20.011Z,30.30
2017-11-30T05:55:49.415Z,33.03
2017-11-30T05:58:19.195Z,36.67
2017-11-30T06:00:48.994Z,31.67
2017-11-30T06:03:20.692Z,33.87
2017-11-30T06:05:50.477Z,29.77
2017-11-30T06:08:19.513Z,38.10
2017-11-30T06:10:48.616Z,30.13
2017-11-30T06:13:18.010Z,32.13
2017-11-30T06:15:48.011Z,35.17
2017-11-30T06:18:17.389Z,27.60
2017-11-30T06:20:47.162Z,31.60
2017-11-30T06:23:16.961Z,34.60
2017-11-30T06:25:46.723Z,32.00
2017-11-30T06:28:15.740Z,31.27
2017-11-30T06:30:45.498Z,35.30
2017-11-30T06:33:14.521Z,26.30
2017-11-30T06:35:43.511Z,32.63
2017-11-30T06:38:13.286Z,32.53
2017-11-30T06:40:42.734Z,37.27
2017-11-30T06:43:12.110Z,30.90
2017-11-30T06:45:41.191Z,34.47
2017-11-30T06:48:10.974Z,30.73
2017-11-30T06:50:40.735Z,40.20
2017-11-30T06:53:10.486Z,36.30
2017-11-30T06:55:39.521Z,33.80
2017-11-30T06:58:08.514Z,37.77
2017-11-30T07:00:37.598Z,30.37
2017-11-30T07:03:06.759Z,36.93
2017-11-30T07:05:35.748Z,35.33
2017-11-30T07:08:04.725Z,33.03
2017-11-30T07:10:33.794Z,33.40
2017-11-30T07:13:02.757Z,32.47
2017-11-30T07:15:31.772Z,38.83
2017-11-30T07:18:00.735Z,30.40
2017-11-30T07:20:29.774Z,30.30
2017-11-30T07:22:58.728Z,30.90
2017-11-30T07:25:27.739Z,32.57
2017-11-30T07:27:56.705Z,33.70
2017-11-30T07:30:25.796Z,31.27
2017-11-30T07:32:55.532Z,28.40
2017-11-30T07:35:24.552Z,34.80
2017-11-30T07:37:53.551Z,28.80
2017-11-30T07:40:22.526Z,28.03
2017-11-30T07:42:51.542Z,32.87
2017-11-30T07:45:21.303Z,31.03
2017-11-30T07:47:50.300Z,37.20
2017-11-30T07:50:19.286Z,34.60
2017-11-30T07:52:48.287Z,30.40
2017-11-30T07:55:17.264Z,33.23
2017-11-30T07:57:46.469Z,27.10
2017-11-30T08:00:15.716Z,33.03
2017-11-30T08:02:44.712Z,30.27
2017-11-30T08:05:13.693Z,26.87
2017-11-30T08:07:42.699Z,32.53
2017-11-30T08:10:11.710Z,28.30
2017-11-30T08:12:40.727Z,27.03
2017-11-30T08:15:09.761Z,50.37
2017-11-30T08:17:39.500Z,27.70
2017-11-30T08:20:08.529Z,37.63
2017-11-30T08:22:37.481Z,33.73
2017-11-30T08:25:07.812Z,29.70
2017-11-30T08:27:36.854Z,34.40
2017-11-30T08:30:05.881Z,31.93
2017-11-30T08:32:35.654Z,38.77
2017-11-30T08:35:04.700Z,28.33
2017-11-30T08:37:34.474Z,40.67
2017-11-30T08:40:03.484Z,31.90
2017-11-30T08:42:32.836Z,26.67
2017-11-30T08:45:02.658Z,40.77
2017-11-30T08:47:31.636Z,53.47
2017-11-30T08:50:00.629Z,79.53
2017-11-30T08:52:29.606Z,107.23
2017-11-30T08:54:58.602Z,59.97
2017-11-30T08:57:28.711Z,31.10
2017-11-30T08:59:57.734Z,36.40
2017-11-30T09:02:28.211Z,36.00
2017-11-30T09:04:57.203Z,32.10
2017-11-30T09:07:26.224Z,33.00
2017-11-30T09:09:55.232Z,26.50
2017-11-30T09:12:24.193Z,21.03
2017-11-30T09:14:53.594Z,25.53
2017-11-30T09:17:22.593Z,28.53
2017-11-30T09:19:51.599Z,26.23
2017-11-30T09:22:20.608Z,27.70
2017-11-30T09:24:50.366Z,35.17
2017-11-30T09:27:19.406Z,31.70
2017-11-30T09:29:48.453Z,30.07
2017-11-30T09:32:17.815Z,32.83
2017-11-30T09:34:46.821Z,34.90
2017-11-30T09:37:17.337Z,37.63
2017-11-30T09:39:46.421Z,33.83
2017-11-30T09:42:15.465Z,36.17
2017-11-30T09:44:44.896Z,29.73
2017-11-30T09:47:14.669Z,34.50
2017-11-30T09:49:44.479Z,39.63
2017-11-30T09:52:13.486Z,33.60
2017-11-30T09:54:42.552Z,42.23
2017-11-30T09:57:11.956Z,30.23
2017-11-30T09:59:40.946Z,30.07
2017-11-30T10:02:10.725Z,24.27
2017-11-30T10:04:39.766Z,23.30
2017-11-30T10:07:09.502Z,22.17
2017-11-30T10:09:38.523Z,18.43
2017-11-30T10:12:07.512Z,22.83
2017-11-30T10:14:37.375Z,23.30
2017-11-30T10:17:06.433Z,20.47
2017-11-30T10:19:35.432Z,22.67
2017-11-30T10:22:04.476Z,21.60
2017-11-30T10:24:34.228Z,24.40
2017-11-30T10:27:04.013Z,19.70
2017-11-30T10:29:33.409Z,24.57
2017-11-30T10:32:02.426Z,20.53
2017-11-30T10:34:31.807Z,19.60
2017-11-30T10:37:00.798Z,22.73
2017-11-30T10:39:29.934Z,18.60
2017-11-30T10:42:00.466Z,16.90
2017-11-30T10:44:30.279Z,22.23
2017-11-30T10:46:59.663Z,19.27
2017-11-30T10:49:30.531Z,16.47
2017-11-30T10:51:59.915Z,13.67
2017-11-30T10:54:29.767Z,14.03
2017-11-30T10:56:59.292Z,10.07
2017-11-30T10:59:28.708Z,16.23
2017-11-30T11:01:58.484Z,13.33
2017-11-30T11:04:27.856Z,9.80
2017-11-30T11:06:57.275Z,8.97
2017-11-30T11:09:26.696Z,10.73
2017-11-30T11:11:55.686Z,8.70
2017-11-30T11:14:24.702Z,8.33
2017-11-30T11:16:53.686Z,9.90
2017-11-30T11:19:22.673Z,10.27
2017-11-30T11:21:51.687Z,11.33
2017-11-30T11:24:20.663Z,14.53
2017-11-30T11:26:50.072Z,14.63
2017-11-30T11:29:19.155Z,10.93
2017-11-30T11:31:48.138Z,11.70
2017-11-30T11:34:18.102Z,9.43
2017-11-30T11:36:47.843Z,11.73
2017-11-30T11:39:17.998Z,8.43
2017-11-30T11:41:46.999Z,10.50
2017-11-30T11:44:16.465Z,9.33
2017-11-30T11:46:45.439Z,8.33
2017-11-30T11:49:14.519Z,11.97
2017-11-30T11:51:43.520Z,10.90
2017-11-30T11:54:12.511Z,8.17
2017-11-30T11:56:41.894Z,7.80
2017-11-30T11:59:10.941Z,8.37
2017-11-30T12:01:40.682Z,11.80
2017-11-30T12:04:10.435Z,12.00
2017-11-30T12:06:39.879Z,10.20
2017-11-30T12:09:08.877Z,19.67
2017-11-30T12:11:37.849Z,26.90
2017-11-30T12:14:07.633Z,16.23
2017-11-30T12:16:37.043Z,31.27
2017-11-30T12:19:06.810Z,40.27
2017-11-30T12:21:35.908Z,51.23
2017-11-30T12:24:05.006Z,79.93
2017-11-30T12:26:34.755Z,23.10
2017-11-30T12:29:05.014Z,89.50
2017-11-30T12:31:35.230Z,18.10
2017-11-30T12:34:04.224Z,23.13
2017-11-30T12:36:33.257Z,25.70
2017-11-30T12:39:03.563Z,17.00
2017-11-30T12:41:32.986Z,14.73
2017-11-30T12:44:03.655Z,17.20
2017-11-30T12:46:33.419Z,13.17
2017-11-30T12:49:02.392Z,13.90
2017-11-30T12:51:31.796Z,18.23
2017-11-30T12:54:00.777Z,14.83
2017-11-30T12:56:30.162Z,14.57
2017-11-30T12:58:59.756Z,29.37
2017-11-30T13:01:29.633Z,17.00
2017-11-30T13:03:58.668Z,13.50
2017-11-30T13:06:28.403Z,14.80
2017-11-30T13:08:57.886Z,11.63
2017-11-30T13:11:27.680Z,11.27
2017-11-30T13:13:57.440Z,11.17
2017-11-30T13:16:27.718Z,11.60
2017-11-30T13:18:56.707Z,13.40
2017-11-30T13:21:26.516Z,10.10
2017-11-30T13:23:55.598Z,6.80
2017-11-30T13:26:24.631Z,7.50
2017-11-30T13:28:53.657Z,10.33
2017-11-30T13:31:23.061Z,10.47
2017-11-30T13:33:53.597Z,11.13
2017-11-30T13:36:22.692Z,9.07
2017-11-30T13:38:51.692Z,10.07
2017-11-30T13:41:20.774Z,7.03
2017-11-30T13:43:50.618Z,8.67
2017-11-30T13:46:20.397Z,5.70
2017-11-30T13:48:49.491Z,5.83
2017-11-30T13:51:18.532Z,5.60
2017-11-30T13:56:42.915Z,6.03
2017-11-30T13:59:13.480Z,6.40
2017-11-30T14:01:42.505Z,6.40
2017-11-30T14:04:11.493Z,8.00
2017-11-30T14:06:40.478Z,7.17
2017-11-30T14:09:09.448Z,4.40
2017-11-30T14:11:38.440Z,6.13
2017-11-30T14:14:07.839Z,6.20
2017-11-30T14:16:37.245Z,3.70
2017-11-30T14:19:06.631Z,6.67
2017-11-30T14:21:36.377Z,6.27
2017-11-30T14:24:05.340Z,3.87
2017-11-30T14:26:34.917Z,2.73
2017-11-30T14:29:04.269Z,4.10
2017-11-30T14:31:33.227Z,5.97
2017-11-30T14:34:02.631Z,4.13
2017-11-30T14:36:32.108Z,2.97
2017-11-30T14:39:02.102Z,4.53
2017-11-30T14:41:31.848Z,3.30
2017-11-30T14:44:00.929Z,3.23
2017-11-30T14:46:30.776Z,5.40
2017-11-30T14:49:00.173Z,5.97
2017-11-30T14:51:29.929Z,10.70
2017-11-30T14:53:58.978Z,8.27
2017-11-30T14:56:28.772Z,6.23
2017-11-30T14:58:57.776Z,6.30
2017-11-30T15:01:28.131Z,6.97
2017-11-30T15:03:57.125Z,4.80
2017-11-30T15:06:26.071Z,5.20
2017-11-30T15:08:55.844Z,7.13
2017-11-30T15:11:25.023Z,6.25
2017-11-30T15:13:54.084Z,4.63
2017-11-30T15:16:23.077Z,6.97
2017-11-30T15:18:52.171Z,6.90
2017-11-30T15:21:21.524Z,5.97
2017-11-30T15:23:50.527Z,13.77
2017-11-30T15:26:19.483Z,8.40
2017-11-30T15:28:48.561Z,6.90
2017-11-30T15:31:18.344Z,8.10
2017-11-30T15:33:47.317Z,6.30
2017-11-30T15:36:16.858Z,7.77
2017-11-30T15:38:45.916Z,13.10
2017-11-30T15:41:15.296Z,11.13
2017-11-30T15:43:44.334Z,8.20
2017-11-30T15:46:13.685Z,10.43
2017-11-30T15:48:42.751Z,12.30
2017-11-30T15:51:12.635Z,8.47
2017-11-30T15:53:41.640Z,10.97
2017-11-30T15:56:10.622Z,9.27
2017-11-30T15:58:39.642Z,9.60
2017-11-30T16:01:08.706Z,9.47
2017-11-30T16:03:37.703Z,7.87
2017-11-30T16:06:06.710Z,9.00
2017-11-30T16:08:35.748Z,10.47
2017-11-30T16:11:05.465Z,12.80
2017-11-30T16:13:34.645Z,8.20
2017-11-30T16:16:04.583Z,6.63
2017-11-30T16:18:34.309Z,6.03
2017-11-30T16:21:03.670Z,11.20
2017-11-30T16:23:32.696Z,6.33
2017-11-30T16:26:01.750Z,8.77
2017-11-30T16:28:30.756Z,7.90
2017-11-30T16:31:00.484Z,6.70
2017-11-30T16:33:29.884Z,8.40
2017-11-30T16:35:58.880Z,8.37
2017-11-30T16:38:27.961Z,6.17
2017-11-30T16:40:57.372Z,6.70
2017-11-30T16:43:26.337Z,7.93
2017-11-30T16:45:56.128Z,13.00
2017-11-30T16:48:25.669Z,14.13
2017-11-30T16:50:54.929Z,25.73
2017-11-30T16:53:24.733Z,16.80
2017-11-30T16:55:54.501Z,12.43
2017-11-30T16:58:23.609Z,10.93
2017-11-30T17:00:52.589Z,11.67
2017-11-30T17:03:21.605Z,13.13
2017-11-30T17:05:52.369Z,11.47
2017-11-30T17:08:21.736Z,13.17
2017-11-30T17:10:51.577Z,12.33
2017-11-30T17:13:20.570Z,10.60
2017-11-30T17:15:50.337Z,11.60
2017-11-30T17:18:20.451Z,12.60
2017-11-30T17:20:49.467Z,10.27
2017-11-30T17:23:18.496Z,10.00
2017-11-30T17:25:48.275Z,10.73
2017-11-30T17:28:18.036Z,11.17
2017-11-30T17:30:47.788Z,9.10
2017-11-30T17:33:16.783Z,11.10
2017-11-30T17:35:45.759Z,21.13
2017-11-30T17:38:14.761Z,20.23
2017-11-30T17:40:43.748Z,19.47
2017-11-30T17:43:12.772Z,16.27
2017-11-30T17:45:41.922Z,15.43
2017-11-30T17:48:11.861Z,15.80
2017-11-30T17:50:41.246Z,17.77
2017-11-30T17:53:10.231Z,15.07
2017-11-30T17:55:39.634Z,14.33
2017-11-30T17:58:08.646Z,20.10
2017-11-30T18:00:37.657Z,24.83
2017-11-30T18:03:06.670Z,19.10
2017-11-30T18:05:35.734Z,16.00
2017-11-30T18:08:04.781Z,17.30
2017-11-30T18:10:33.783Z,16.00
2017-11-30T18:13:02.789Z,15.63
2017-11-30T18:15:31.918Z,17.87
2017-11-30T18:18:01.786Z,16.10
2017-11-30T18:20:30.827Z,12.17
2017-11-30T18:23:00.615Z,12.40
2017-11-30T18:25:29.602Z,14.80
2017-11-30T18:27:58.698Z,14.10
2017-11-30T18:30:27.702Z,15.40
2017-11-30T18:32:56.774Z,15.47
2017-11-30T18:35:25.743Z,14.10
2017-11-30T18:37:55.545Z,11.87
2017-11-30T18:40:25.888Z,14.03
2017-11-30T18:42:54.903Z,15.30
2017-11-30T18:45:23.912Z,13.40
2017-11-30T18:47:52.955Z,13.97
2017-11-30T18:50:22.512Z,15.13
2017-11-30T18:52:51.956Z,13.80
2017-11-30T18:55:21.737Z,18.67
2017-11-30T18:57:50.752Z,17.40
2017-11-30T19:00:20.165Z,14.63
2017-11-30T19:02:49.940Z,16.27
2017-11-30T19:05:19.392Z,25.80
2017-11-30T19:07:48.465Z,22.63
2017-11-30T19:10:18.528Z,27.20
2017-11-30T19:12:47.978Z,23.27
2017-11-30T19:15:17.114Z,22.37
2017-11-30T19:17:46.206Z,23.30
2017-11-30T19:20:15.249Z,29.73
2017-11-30T19:22:44.356Z,21.03
2017-11-30T19:25:14.169Z,21.70
2017-11-30T19:27:44.035Z,22.67
2017-11-30T19:30:13.063Z,19.97
2017-11-30T19:32:42.374Z,19.80
2017-11-30T19:35:12.801Z,22.67
2017-11-30T19:37:41.857Z,22.23
2017-11-30T19:40:11.335Z,26.87
2017-11-30T19:42:40.390Z,27.20
2017-11-30T19:45:10.088Z,30.57
2017-11-30T19:47:39.499Z,25.23
2017-11-30T19:50:09.112Z,24.27
2017-11-30T19:52:39.447Z,25.60
2017-11-30T19:55:10.225Z,24.90
2017-11-30T19:57:40.068Z,26.70
2017-11-30T20:00:09.141Z,24.10
2017-11-30T20:02:38.206Z,24.57
2017-11-30T20:05:07.247Z,23.47
2017-11-30T20:07:36.257Z,17.63
2017-11-30T20:10:05.782Z,22.33
2017-11-30T20:12:35.574Z,23.53
2017-11-30T20:15:04.646Z,19.77
2017-11-30T20:17:33.680Z,20.23
2017-11-30T20:20:02.700Z,20.00
2017-11-30T20:22:31.775Z,22.10
2017-11-30T20:25:03.385Z,20.97
2017-11-30T20:27:33.672Z,18.70
2017-11-30T20:30:03.442Z,19.83
2017-11-30T20:32:32.939Z,20.57
2017-11-30T20:35:03.394Z,24.33
2017-11-30T20:37:33.617Z,18.20
2017-11-30T20:40:02.734Z,17.60
2017-11-30T20:42:31.819Z,24.83
2017-11-30T20:45:02.407Z,30.57
2017-11-30T20:47:32.077Z,30.43
2017-11-30T20:50:01.907Z,28.47
2017-11-30T20:52:31.744Z,21.23
2017-11-30T20:55:01.558Z,30.80
2017-11-30T20:57:31.377Z,34.10
2017-11-30T21:00:02.517Z,24.20
2017-11-30T21:02:33.089Z,30.13
2017-11-30T21:05:02.165Z,22.10
2017-11-30T21:07:31.624Z,18.70
2017-11-30T21:10:01.603Z,16.60
2017-11-30T21:12:32.606Z,23.17
2017-11-30T21:15:02.020Z,20.20
2017-11-30T21:17:31.865Z,18.40
2017-11-30T21:20:01.267Z,16.13
2017-11-30T21:22:30.404Z,15.70
2017-11-30T21:24:59.908Z,18.80
2017-11-30T21:27:29.686Z,15.70
2017-11-30T21:29:59.503Z,20.00
2017-11-30T21:32:28.556Z,15.90
2017-11-30T21:34:57.630Z,18.60
2017-11-30T21:37:27.447Z,14.47
2017-11-30T21:39:56.827Z,16.57
2017-11-30T21:42:26.624Z,19.10
2017-11-30T21:44:56.062Z,20.07
2017-11-30T21:47:25.054Z,15.50
2017-11-30T21:49:54.523Z,22.73
2017-11-30T21:52:23.507Z,21.50
2017-11-30T21:54:52.549Z,15.43
2017-11-30T21:57:22.294Z,14.13
2017-11-30T21:59:51.313Z,16.40
2017-11-30T22:02:20.305Z,20.17
2017-11-30T22:04:49.760Z,15.20
2017-11-30T22:07:18.820Z,13.90
2017-11-30T22:09:47.811Z,16.43
2017-11-30T22:12:16.802Z,16.20
2017-11-30T22:14:46.535Z,19.70
2017-11-30T22:17:15.541Z,20.63
2017-11-30T22:19:44.527Z,20.53
2017-11-30T22:22:13.534Z,17.60
2017-11-30T22:24:42.506Z,21.27
2017-11-30T22:27:11.903Z,22.97
2017-11-30T22:29:40.958Z,27.77
2017-11-30T22:32:09.936Z,21.10
2017-11-30T22:34:38.941Z,27.83
2017-11-30T22:37:08.019Z,27.50
2017-11-30T22:39:37.023Z,26.30
2017-11-30T22:42:06.180Z,24.17
2017-11-30T22:44:35.892Z,25.80
2017-11-30T22:47:05.678Z,24.03
2017-11-30T22:49:35.449Z,21.97
2017-11-30T22:52:04.439Z,28.97
2017-11-30T22:54:34.092Z,27.77
2017-11-30T22:57:03.100Z,24.43
2017-11-30T22:59:32.883Z,25.83
2017-11-30T23:02:01.997Z,29.80
2017-11-30T23:04:31.000Z,27.33
2017-11-30T23:07:00.737Z,28.20
2017-11-30T23:09:30.525Z,26.47
2017-11-30T23:11:59.537Z,21.67
2017-11-30T23:14:29.315Z,29.80
2017-11-30T23:16:58.333Z,27.03
2017-11-30T23:19:28.443Z,28.63
2017-11-30T23:21:57.434Z,31.10
2017-11-30T23:24:26.816Z,26.63
2017-11-30T23:26:57.074Z,26.50
2017-11-30T23:29:26.859Z,33.83
2017-11-30T23:31:55.865Z,39.10
2017-11-30T23:34:24.830Z,29.90
2017-11-30T23:36:54.608Z,29.13
2017-11-30T23:39:23.602Z,28.67
2017-11-30T23:41:52.576Z,32.60
2017-11-30T23:44:22.360Z,29.80
2017-11-30T23:46:52.512Z,34.53
2017-11-30T23:49:21.502Z,28.77
2017-11-30T23:51:50.530Z,33.03
2017-11-30T23:54:19.490Z,30.40
2017-11-30T23:56:48.545Z,35.63
2017-11-30T23:59:17.541Z,38.00
